createdAt,value
2023-02-17T00:02:16.208Z,64.94
2023-02-17T00:05:17.778Z,64.87
2023-02-17T00:08:19.622Z,64.92
2023-02-17T00:11:21.136Z,64.86
2023-02-17T00:14:22.624Z,64.97
2023-02-17T00:17:24.190Z,64.79
2023-02-17T00:20:25.639Z,64.55
2023-02-17T00:23:27.107Z,64.81
2023-02-17T00:26:28.692Z,64.76
2023-02-17T00:29:30.217Z,64.83
2023-02-17T00:32:31.729Z,64.87
2023-02-17T00:35:33.640Z,64.73
2023-02-17T00:38:35.138Z,64.68
2023-02-17T00:41:36.649Z,64.73
2023-02-17T00:44:38.126Z,64.50
2023-02-17T00:47:39.676Z,64.94
2023-02-17T00:50:41.296Z,64.58
2023-02-17T00:53:43.038Z,64.60
2023-02-17T00:56:45.207Z,64.64
2023-02-17T00:59:46.654Z,64.43
2023-02-17T01:02:48.138Z,64.34
2023-02-17T01:05:51.996Z,64.59
2023-02-17T01:08:53.782Z,64.50
2023-02-17T01:11:55.376Z,64.56
2023-02-17T01:14:56.906Z,64.63
2023-02-17T01:17:58.780Z,64.55
2023-02-17T01:21:00.255Z,64.56
2023-02-17T01:24:04.371Z,64.59
2023-02-17T01:27:06.087Z,64.54
2023-02-17T01:30:07.898Z,64.68
2023-02-17T01:33:09.815Z,64.79
2023-02-17T01:36:13.746Z,64.82
2023-02-17T01:39:16.028Z,64.82
2023-02-17T01:42:20.589Z,64.76
2023-02-17T01:45:23.296Z,64.75
2023-02-17T01:48:30.527Z,64.83
2023-02-17T01:51:36.215Z,64.80
2023-02-17T01:54:48.975Z,64.70
2023-02-17T01:57:53.786Z,64.79
2023-02-17T02:00:59.051Z,64.86
2023-02-17T02:04:04.843Z,64.83
2023-02-17T02:07:13.882Z,64.80
2023-02-17T02:10:18.752Z,64.85
2023-02-17T02:13:20.362Z,64.80
2023-02-17T02:16:25.965Z,64.79
2023-02-17T02:19:56.042Z,64.70
2023-02-17T02:22:57.576Z,64.79
2023-02-17T02:26:23.577Z,64.79
2023-02-17T02:29:49.896Z,64.79
2023-02-17T02:33:03.900Z,64.86
2023-02-17T02:36:10.659Z,64.89
2023-02-17T02:39:20.936Z,64.91
2023-02-17T02:42:25.083Z,65.17
2023-02-17T02:45:26.725Z,65.01
2023-02-17T02:48:29.857Z,65.28
2023-02-17T02:51:49.432Z,64.99
2023-02-17T02:55:04.726Z,64.99
2023-02-17T02:58:12.802Z,65.01
2023-02-17T03:01:53.894Z,64.99
2023-02-17T03:05:18.547Z,64.98
2023-02-17T03:08:36.165Z,65.02
2023-02-17T03:11:38.137Z,65.12
2023-02-17T03:14:39.604Z,65.12
2023-02-17T03:17:41.285Z,65.24
2023-02-17T03:20:51.374Z,65.13
2023-02-17T03:23:53.167Z,65.29
2023-02-17T03:26:54.749Z,65.30
2023-02-17T03:29:56.365Z,65.17
2023-02-17T03:32:57.893Z,65.23
2023-02-17T03:36:00.433Z,65.16
2023-02-17T03:39:01.980Z,65.20
2023-02-17T03:42:04.006Z,65.21
2023-02-17T03:45:05.728Z,65.15
2023-02-17T03:48:07.226Z,65.51
2023-02-17T03:51:21.296Z,65.25
2023-02-17T03:54:22.763Z,65.23
2023-02-17T03:57:24.231Z,65.16
2023-02-17T04:00:25.735Z,65.12
2023-02-17T04:03:27.469Z,65.16
2023-02-17T04:06:28.949Z,65.12
2023-02-17T04:09:30.453Z,65.17
2023-02-17T04:12:31.924Z,65.15
2023-02-17T04:15:33.705Z,65.18
2023-02-17T04:18:35.500Z,65.26
2023-02-17T04:21:37.107Z,65.10
2023-02-17T04:24:38.639Z,65.10
2023-02-17T04:27:40.098Z,65.26
2023-02-17T04:30:46.508Z,65.11
2023-02-17T04:33:48.408Z,65.13
2023-02-17T04:36:49.872Z,65.08
2023-02-17T04:39:51.347Z,65.22
2023-02-17T04:42:52.806Z,65.01
2023-02-17T04:45:54.793Z,65.35
2023-02-17T04:48:56.362Z,65.17
2023-02-17T04:51:57.883Z,65.30
2023-02-17T04:54:59.351Z,65.25
2023-02-17T04:58:00.936Z,64.98
2023-02-17T05:01:02.395Z,65.26
2023-02-17T05:04:04.046Z,65.23
2023-02-17T05:07:05.624Z,65.18
2023-02-17T05:10:07.615Z,65.26
2023-02-17T05:13:09.335Z,65.35
2023-02-17T05:16:10.853Z,65.27
2023-02-17T05:19:12.796Z,65.31
2023-02-17T05:22:14.256Z,65.32
2023-02-17T05:25:15.849Z,65.28
2023-02-17T05:28:17.378Z,65.55
2023-02-17T05:31:19.038Z,65.34
2023-02-17T05:34:20.628Z,65.39
2023-02-17T05:37:22.109Z,65.34
2023-02-17T05:40:23.624Z,65.29
2023-02-17T05:43:25.300Z,65.09
2023-02-17T05:46:26.790Z,65.32
2023-02-17T05:49:28.437Z,64.87
2023-02-17T05:52:29.966Z,64.83
2023-02-17T05:55:31.687Z,64.89
2023-02-17T05:58:33.170Z,64.73
2023-02-17T06:01:37.040Z,64.61
2023-02-17T06:04:39.112Z,64.70
2023-02-17T06:07:41.636Z,64.73
2023-02-17T06:10:43.182Z,64.68
2023-02-17T06:13:44.649Z,64.58
2023-02-17T06:16:46.174Z,64.65
2023-02-17T06:19:47.646Z,64.66
2023-02-17T06:22:49.131Z,64.51
2023-02-17T06:25:50.800Z,64.44
2023-02-17T06:28:52.255Z,64.46
2023-02-17T06:31:54.695Z,64.26
2023-02-17T06:34:56.266Z,64.35
2023-02-17T06:37:57.780Z,64.22
2023-02-17T06:40:59.448Z,64.10
2023-02-17T06:44:00.956Z,64.17
2023-02-17T06:47:02.474Z,63.93
2023-02-17T06:50:04.284Z,64.16
2023-02-17T06:53:05.800Z,64.03
2023-02-17T06:56:07.834Z,64.27
2023-02-17T06:59:09.474Z,64.23
2023-02-17T07:02:12.404Z,64.23
2023-02-17T07:05:14.043Z,64.33
2023-02-17T07:08:15.563Z,64.21
2023-02-17T07:11:17.950Z,64.23
2023-02-17T07:14:19.484Z,64.05
2023-02-17T07:17:21.078Z,64.30
2023-02-17T07:20:22.592Z,64.18
2023-02-17T07:23:24.058Z,64.22
2023-02-17T07:26:25.563Z,64.14
2023-02-17T07:29:27.688Z,64.07
2023-02-17T07:32:29.266Z,64.30
2023-02-17T07:35:30.810Z,64.08
2023-02-17T07:38:33.500Z,63.98
2023-02-17T07:41:35.187Z,64.17
2023-02-17T07:44:43.336Z,64.20
2023-02-17T07:47:44.903Z,64.00
2023-02-17T07:50:46.350Z,64.04
2023-02-17T07:53:49.304Z,64.00
2023-02-17T07:56:50.803Z,63.92
2023-02-17T07:59:52.615Z,63.91
2023-02-17T08:02:54.093Z,63.87
2023-02-17T08:05:55.571Z,63.77
2023-02-17T08:09:15.513Z,63.79
2023-02-17T08:12:37.871Z,63.67
2023-02-17T08:15:39.388Z,63.85
2023-02-17T08:18:40.878Z,63.69
2023-02-17T08:21:42.404Z,63.46
2023-02-17T08:24:44.540Z,63.43
2023-02-17T08:27:46.018Z,63.40
2023-02-17T08:30:47.572Z,63.38
2023-02-17T08:33:49.614Z,63.20
2023-02-17T08:36:51.071Z,63.13
2023-02-17T08:39:53.129Z,62.97
2023-02-17T08:42:54.611Z,62.85
2023-02-17T08:45:56.125Z,62.50
2023-02-17T08:48:57.653Z,62.95
2023-02-17T08:52:00.250Z,62.81
2023-02-17T08:55:02.087Z,62.78
2023-02-17T08:58:03.688Z,62.70
2023-02-17T09:01:05.256Z,62.59
2023-02-17T09:04:08.515Z,62.65
2023-02-17T09:07:13.253Z,62.64
2023-02-17T09:10:15.625Z,62.66
2023-02-17T09:13:17.782Z,62.58
2023-02-17T09:16:20.822Z,62.85
2023-02-17T09:19:22.971Z,62.55
2023-02-17T09:22:32.041Z,62.59
2023-02-17T09:25:34.448Z,62.48
2023-02-17T09:28:36.790Z,62.55
2023-02-17T09:31:38.457Z,62.42
2023-02-17T09:34:40.412Z,62.47
2023-02-17T09:37:42.096Z,62.50
2023-02-17T09:40:48.317Z,62.47
2023-02-17T09:43:54.389Z,62.40
2023-02-17T09:47:22.637Z,62.35
2023-02-17T09:50:39.169Z,62.30
2023-02-17T09:53:46.854Z,62.46
2023-02-17T09:56:52.535Z,62.26
2023-02-17T10:00:32.491Z,62.20
2023-02-17T10:03:43.164Z,62.21
2023-02-17T10:06:49.954Z,62.25
2023-02-17T10:10:22.454Z,62.20
2023-02-17T10:13:27.560Z,62.05
2023-02-17T10:16:36.306Z,62.28
2023-02-17T10:19:58.863Z,62.16
2023-02-17T10:23:09.205Z,62.13
2023-02-17T10:26:19.399Z,62.14
2023-02-17T10:29:39.092Z,62.18
2023-02-17T10:33:11.849Z,62.26
2023-02-17T10:36:28.308Z,62.14
2023-02-17T10:39:47.444Z,62.38
2023-02-17T10:42:56.634Z,62.57
2023-02-17T10:46:01.237Z,62.72
2023-02-17T10:49:02.910Z,62.74
2023-02-17T10:52:12.986Z,62.71
2023-02-17T10:55:23.770Z,62.64
2023-02-17T10:58:31.074Z,62.65
2023-02-17T11:01:33.695Z,62.73
2023-02-17T11:04:48.018Z,62.72
2023-02-17T11:07:56.110Z,62.72
2023-02-17T11:11:25.472Z,62.82
2023-02-17T11:14:29.386Z,62.98
2023-02-17T11:17:40.848Z,63.04
2023-02-17T11:20:42.371Z,63.05
2023-02-17T11:24:00.980Z,63.01
2023-02-17T11:27:09.957Z,63.05
2023-02-17T11:30:18.611Z,63.02
2023-02-17T11:33:30.174Z,63.01
2023-02-17T11:36:32.303Z,62.95
2023-02-17T11:39:42.331Z,63.01
2023-02-17T11:42:43.853Z,63.12
2023-02-17T11:45:52.225Z,62.91
2023-02-17T11:49:12.474Z,62.96
2023-02-17T11:52:13.885Z,62.89
2023-02-17T11:55:21.045Z,62.88
2023-02-17T11:58:31.407Z,62.86
2023-02-17T12:01:58.373Z,62.73
2023-02-17T12:05:26.415Z,62.64
2023-02-17T12:08:49.774Z,62.64
2023-02-17T12:11:59.212Z,62.55
2023-02-17T12:15:24.717Z,62.54
2023-02-17T12:18:41.952Z,62.40
2023-02-17T12:21:48.976Z,62.54
2023-02-17T12:25:22.356Z,62.38
2023-02-17T12:28:57.993Z,62.36
2023-02-17T12:32:33.576Z,62.48
2023-02-17T12:35:42.974Z,62.38
2023-02-17T12:38:57.138Z,62.33
2023-02-17T12:42:16.493Z,62.34
2023-02-17T12:45:22.795Z,62.33
2023-02-17T12:48:32.711Z,62.26
2023-02-17T12:51:38.420Z,62.32
2023-02-17T12:54:48.190Z,62.33
2023-02-17T12:57:58.006Z,62.33
2023-02-17T13:01:10.118Z,62.13
2023-02-17T13:04:17.187Z,62.26
2023-02-17T13:07:37.310Z,62.30
2023-02-17T13:10:40.328Z,62.32
2023-02-17T13:13:41.835Z,62.39
2023-02-17T13:16:46.459Z,62.34
2023-02-17T13:19:47.941Z,62.59
2023-02-17T13:22:49.465Z,62.43
2023-02-17T13:26:17.701Z,62.60
2023-02-17T13:29:25.402Z,62.63
2023-02-17T13:32:29.886Z,62.55
2023-02-17T13:35:35.334Z,62.62
2023-02-17T13:38:36.866Z,62.56
2023-02-17T13:41:48.574Z,62.60
2023-02-17T13:44:51.071Z,62.59
2023-02-17T13:47:57.739Z,62.71
2023-02-17T13:51:05.326Z,62.69
2023-02-17T13:54:08.339Z,62.65
2023-02-17T13:57:22.797Z,62.57
2023-02-17T14:00:30.263Z,62.60
2023-02-17T14:03:51.422Z,62.48
2023-02-17T14:06:56.138Z,62.76
2023-02-17T14:09:57.643Z,62.70
2023-02-17T14:12:59.609Z,62.65
2023-02-17T14:16:01.189Z,62.79
2023-02-17T14:19:12.224Z,62.90
2023-02-17T14:22:30.355Z,62.70
2023-02-17T14:25:35.508Z,62.88
2023-02-17T14:28:36.990Z,62.77
2023-02-17T14:31:44.634Z,62.88
2023-02-17T14:34:46.153Z,62.92
2023-02-17T14:37:48.633Z,62.87
2023-02-17T14:40:50.296Z,62.84
2023-02-17T14:43:52.361Z,62.90
2023-02-17T14:46:53.849Z,62.96
2023-02-17T14:49:55.715Z,63.15
2023-02-17T14:52:57.307Z,62.99
2023-02-17T14:56:01.467Z,62.91
2023-02-17T14:59:03.030Z,63.05
2023-02-17T15:02:13.709Z,63.07
2023-02-17T15:05:15.273Z,62.98
2023-02-17T15:08:25.182Z,63.34
2023-02-17T15:11:37.332Z,63.03
2023-02-17T15:14:38.815Z,62.93
2023-02-17T15:17:40.402Z,63.15
2023-02-17T15:20:44.201Z,63.10
2023-02-17T15:23:45.701Z,63.17
2023-02-17T15:26:47.992Z,62.99
2023-02-17T15:29:49.508Z,63.54
2023-02-17T15:32:51.085Z,62.91
2023-02-17T15:35:54.288Z,63.16
2023-02-17T15:38:55.836Z,63.34
2023-02-17T15:42:00.570Z,62.95
2023-02-17T15:45:02.137Z,62.89
2023-02-17T15:48:08.490Z,63.12
2023-02-17T15:51:13.327Z,63.17
2023-02-17T15:54:19.054Z,63.05
2023-02-17T15:57:24.719Z,63.12
2023-02-17T16:00:28.853Z,63.35
2023-02-17T16:03:30.373Z,63.40
2023-02-17T16:06:31.996Z,63.78
2023-02-17T16:09:33.513Z,64.08
2023-02-17T16:12:35.313Z,64.07
2023-02-17T16:15:37.534Z,64.18
2023-02-17T16:18:39.015Z,64.63
2023-02-17T16:21:40.492Z,64.92
2023-02-17T16:24:42.110Z,64.46
2023-02-17T16:27:45.992Z,64.56
2023-02-17T16:30:49.403Z,64.62
2023-02-17T16:33:51.633Z,64.43
2023-02-17T16:36:56.535Z,64.60
2023-02-17T16:39:58.048Z,64.59
2023-02-17T16:42:59.935Z,64.82
2023-02-17T16:46:04.485Z,64.64
2023-02-17T16:49:28.223Z,64.67
2023-02-17T16:52:29.713Z,64.69
2023-02-17T16:55:33.601Z,64.75
2023-02-17T16:58:35.085Z,64.70
2023-02-17T17:01:36.580Z,64.90
2023-02-17T17:04:38.312Z,64.67
2023-02-17T17:07:40.796Z,64.65
2023-02-17T17:10:44.911Z,64.62
2023-02-17T17:13:47.097Z,64.33
2023-02-17T17:16:54.810Z,64.53
2023-02-17T17:19:56.343Z,64.50
2023-02-17T17:22:59.949Z,64.39
2023-02-17T17:26:01.608Z,64.27
2023-02-17T17:29:03.793Z,62.08
2023-02-17T17:32:05.446Z,60.19
2023-02-17T17:35:07.098Z,60.50
2023-02-17T17:38:13.591Z,60.97
2023-02-17T17:41:26.174Z,61.47
2023-02-17T17:44:28.299Z,61.62
2023-02-17T17:47:30.597Z,62.41
2023-02-17T17:50:32.120Z,62.22
2023-02-17T17:53:33.664Z,62.66
2023-02-17T17:56:38.789Z,62.77
2023-02-17T17:59:40.295Z,62.79
2023-02-17T18:02:42.220Z,62.79
2023-02-17T18:05:44.479Z,62.75
2023-02-17T18:08:48.102Z,62.89
2023-02-17T18:11:52.287Z,62.93
2023-02-17T18:14:55.119Z,63.00
2023-02-17T18:17:56.743Z,63.07
2023-02-17T18:20:58.242Z,63.01
2023-02-17T18:23:59.803Z,63.06
2023-02-17T18:27:01.338Z,62.97
2023-02-17T18:30:03.144Z,63.20
2023-02-17T18:33:04.949Z,63.01
2023-02-17T18:36:19.302Z,63.16
2023-02-17T18:39:20.949Z,63.30
2023-02-17T18:42:22.523Z,63.10
2023-02-17T18:45:26.114Z,63.29
2023-02-17T18:48:27.793Z,63.28
2023-02-17T18:51:29.358Z,63.21
2023-02-17T18:54:30.837Z,63.38
2023-02-17T18:57:33.373Z,63.38
2023-02-17T19:00:34.980Z,63.38
2023-02-17T19:03:36.452Z,63.34
2023-02-17T19:06:38.669Z,63.45
2023-02-17T19:09:42.241Z,63.44
2023-02-17T19:12:43.765Z,63.74
2023-02-17T19:15:45.335Z,63.29
2023-02-17T19:18:47.613Z,63.28
2023-02-17T19:21:49.293Z,63.44
2023-02-17T19:24:53.126Z,63.58
2023-02-17T19:27:54.605Z,63.84
2023-02-17T19:30:57.113Z,63.71
2023-02-17T19:33:58.628Z,63.72
2023-02-17T19:37:00.151Z,63.71
2023-02-17T19:40:01.666Z,63.54
2023-02-17T19:43:03.179Z,63.37
2023-02-17T19:46:05.359Z,63.25
2023-02-17T19:49:07.179Z,63.30
2023-02-17T19:52:08.767Z,63.12
2023-02-17T19:55:10.371Z,63.21
2023-02-17T19:58:11.852Z,63.10
2023-02-17T20:01:17.131Z,63.08
2023-02-17T20:04:20.153Z,62.85
2023-02-17T20:07:21.658Z,63.14
2023-02-17T20:10:23.580Z,63.19
2023-02-17T20:13:27.189Z,63.05
2023-02-17T20:16:30.250Z,62.83
2023-02-17T20:19:31.829Z,62.83
2023-02-17T20:22:33.283Z,62.52
2023-02-17T20:25:40.432Z,62.59
2023-02-17T20:28:41.995Z,62.60
2023-02-17T20:31:43.659Z,62.53
2023-02-17T20:34:45.184Z,62.39
2023-02-17T20:37:46.703Z,62.41
2023-02-17T20:40:48.313Z,62.63
2023-02-17T20:43:51.114Z,62.65
2023-02-17T20:46:53.662Z,62.54
2023-02-17T20:49:55.177Z,62.54
2023-02-17T20:52:56.671Z,62.66
2023-02-17T20:55:58.146Z,62.36
2023-02-17T20:58:59.973Z,62.57
2023-02-17T21:02:01.493Z,62.59
2023-02-17T21:05:03.079Z,62.39
2023-02-17T21:08:05.087Z,62.40
2023-02-17T21:11:06.561Z,62.39
2023-02-17T21:14:08.460Z,62.30
2023-02-17T21:17:10.586Z,62.41
2023-02-17T21:20:15.249Z,62.35
2023-02-17T21:23:16.830Z,62.33
2023-02-17T21:26:18.333Z,62.28
2023-02-17T21:29:19.991Z,62.46
2023-02-17T21:32:21.477Z,62.32
2023-02-17T21:35:23.235Z,62.48
2023-02-17T21:38:24.757Z,62.20
2023-02-17T21:41:28.929Z,62.59
2023-02-17T21:44:49.137Z,62.73
2023-02-17T21:47:50.878Z,62.71
2023-02-17T21:50:52.342Z,62.57
2023-02-17T21:53:54.073Z,62.36
2023-02-17T21:56:55.668Z,62.49
2023-02-17T21:59:57.110Z,62.61
2023-02-17T22:02:58.634Z,62.30
2023-02-17T22:06:00.204Z,62.31
2023-02-17T22:09:01.802Z,62.12
2023-02-17T22:12:03.443Z,62.06
2023-02-17T22:15:06.752Z,62.01
2023-02-17T22:18:08.254Z,62.17
2023-02-17T22:21:11.639Z,62.03
2023-02-17T22:24:13.730Z,62.07
2023-02-17T22:27:15.282Z,62.18
2023-02-17T22:30:17.219Z,62.28
2023-02-17T22:33:18.997Z,62.30
2023-02-17T22:36:22.507Z,62.36
2023-02-17T22:39:24.061Z,62.43
2023-02-17T22:42:25.814Z,62.21
2023-02-17T22:45:27.337Z,62.31
2023-02-17T22:48:29.859Z,62.23
2023-02-17T22:51:35.492Z,62.27
2023-02-17T22:54:38.750Z,62.31
2023-02-17T22:57:40.336Z,62.16
2023-02-17T23:00:41.844Z,62.28
2023-02-17T23:03:44.571Z,62.39
2023-02-17T23:06:46.037Z,62.29
2023-02-17T23:09:47.535Z,62.21
2023-02-17T23:12:49.056Z,62.35
2023-02-17T23:15:50.604Z,62.38
2023-02-17T23:18:52.092Z,62.26
2023-02-17T23:21:57.636Z,62.32
2023-02-17T23:24:59.093Z,62.42
2023-02-17T23:28:01.438Z,62.35
2023-02-17T23:31:03.209Z,62.41
2023-02-17T23:34:05.451Z,62.40
2023-02-17T23:37:06.956Z,62.40
2023-02-17T23:40:09.390Z,62.20
2023-02-17T23:43:10.930Z,62.39
2023-02-17T23:46:12.531Z,62.28
2023-02-17T23:49:16.035Z,62.36
2023-02-17T23:52:18.677Z,62.36
2023-02-17T23:55:21.561Z,62.37
2023-02-17T23:58:23.078Z,62.27
